Time;durP1;ratioP1;P1;durP2;ratioP2;P2;SDS_P1;SDS_P2;PMS_P1;PMS_P2;Temp;Humidity;BMP_temperature;BMP_pressure;BME280_temperature;BME280_humidity;BME280_pressure;Samples;Min_cycle;Max_cycle;Signal;HPM_P1;HPM_P2
2022/11/29 00:01:36;;;;;;;;;;;3.80;99.90;;;;;;5073215;28;20008;-61
2022/11/29 00:04:02;;;;;;;;;;;3.80;99.90;;;;;;5089970;28;19916;-60
2022/11/29 00:06:29;;;;;;;;;;;3.80;99.90;;;;;;5090149;28;20360;-60
2022/11/29 00:08:56;;;;;;;;;;;3.80;99.90;;;;;;5089738;28;19918;-59
2022/11/29 00:14:08;;;;;;;;;;;3.80;99.90;;;;;;5089726;28;19915;-60
2022/11/29 00:16:33;;;;;;;;;;;3.80;99.90;;;;;;5089517;28;19904;-60
2022/11/29 00:18:59;;;;;;;;;;;3.80;99.90;;;;;;5088727;28;20272;-59
2022/11/29 00:21:24;;;;;;;;;;;3.80;99.90;;;;;;5089471;28;19911;-59
2022/11/29 00:23:50;;;;;;;;;;;3.80;99.90;;;;;;5089297;28;19943;-59
2022/11/29 00:26:15;;;;;;;;;;;3.80;99.90;;;;;;5092161;28;20313;-56
2022/11/29 00:28:41;;;;;;;;;;;3.80;99.90;;;;;;5093246;28;19919;-60
2022/11/29 00:31:16;;;;;;;;;;;3.80;99.90;;;;;;5092506;28;20399;-59
2022/11/29 00:33:42;;;;;;;;;;;3.80;99.90;;;;;;5091967;28;19907;-59
2022/11/29 00:36:08;;;;;;;;;;;3.80;99.90;;;;;;5093363;28;19907;-58
2022/11/29 00:38:33;;;;;;;;;;;3.80;99.90;;;;;;5093740;28;19907;-59
2022/11/29 00:40:59;;;;;;;;;;;3.80;99.90;;;;;;5093465;28;19946;-59
2022/11/29 00:43:24;;;;;;;;;;;3.80;99.90;;;;;;5093415;28;19908;-60
2022/11/29 00:45:50;;;;;;;;;;;3.80;99.90;;;;;;5093378;28;19927;-60
2022/11/29 00:48:15;;;;;;;;;;;3.80;99.90;;;;;;5107710;22;19924;-66
2022/11/29 00:50:41;;;;;;;;;;;3.80;99.90;;;;;;5071397;28;19912;-64
2022/11/29 00:53:06;;;;;;;;;;;3.80;99.90;;;;;;5067515;28;20431;-64
2022/11/29 00:55:31;;;;;;;;;;;3.80;99.90;;;;;;5070379;28;20364;-64
2022/11/29 00:57:57;;;;;;;;;;;3.80;99.90;;;;;;5066693;28;19912;-64
2022/11/29 01:00:22;;;;;;;;;;;3.80;99.90;;;;;;5069881;28;19936;-64
2022/11/29 01:02:48;;;;;;;;;;;3.80;99.90;;;;;;5067207;28;19951;-64
2022/11/29 01:05:13;;;;;;;;;;;3.70;99.90;;;;;;5065613;28;20266;-64
2022/11/29 01:07:39;;;;;;;;;;;3.80;99.90;;;;;;5062715;28;19908;-64
2022/11/29 01:10:05;;;;;;;;;;;3.70;99.90;;;;;;5066966;28;20248;-64
2022/11/29 01:12:33;;;;;;;;;;;3.80;99.90;;;;;;5063194;28;19912;-64
2022/11/29 01:14:58;;;;;;;;;;;3.80;99.90;;;;;;5064007;28;19908;-64
2022/11/29 01:17:24;;;;;;;;;;;3.70;99.90;;;;;;5066856;28;19905;-64
2022/11/29 01:19:49;;;;;;;;;;;3.70;99.90;;;;;;5068003;28;20089;-64
2022/11/29 01:22:15;;;;;;;;;;;3.70;99.90;;;;;;5058705;28;19908;-64
2022/11/29 01:24:40;;;;;;;;;;;3.70;99.90;;;;;;5068534;28;19919;-64
2022/11/29 01:27:06;;;;;;;;;;;3.70;99.90;;;;;;5070112;28;19915;-64
2022/11/29 01:29:31;;;;;;;;;;;3.70;99.90;;;;;;5069630;28;19918;-64
2022/11/29 01:31:56;;;;;;;;;;;3.70;99.90;;;;;;5061065;28;19916;-64
2022/11/29 01:34:22;;;;;;;;;;;3.70;99.90;;;;;;5064779;28;19904;-64
2022/11/29 01:36:47;;;;;;;;;;;3.70;99.90;;;;;;5052940;28;19904;-64
2022/11/29 01:39:13;;;;;;;;;;;3.70;99.90;;;;;;5070083;28;19908;-64
2022/11/29 01:41:38;;;;;;;;;;;3.70;99.90;;;;;;5069250;28;20299;-64
2022/11/29 01:44:13;;;;;;;;;;;3.70;99.90;;;;;;5064763;28;19908;-64
2022/11/29 01:46:42;;;;;;;;;;;3.70;99.90;;;;;;5050804;28;20364;-65
2022/11/29 01:49:08;;;;;;;;;;;3.70;99.90;;;;;;5049077;28;19912;-64
2022/11/29 01:51:35;;;;;;;;;;;3.70;99.90;;;;;;5053556;28;19905;-64
2022/11/29 01:54:01;;;;;;;;;;;3.70;99.90;;;;;;5063104;28;19916;-64
2022/11/29 01:56:27;;;;;;;;;;;3.70;99.90;;;;;;5059360;28;19909;-65
2022/11/29 01:58:53;;;;;;;;;;;3.70;99.90;;;;;;5061695;28;19924;-65
2022/11/29 02:01:18;;;;;;;;;;;3.70;99.90;;;;;;5062596;28;19908;-64
2022/11/29 02:03:44;;;;;;;;;;;3.70;99.90;;;;;;5063627;28;19939;-64
2022/11/29 02:06:09;;;;;;;;;;;3.70;99.90;;;;;;5064516;28;20425;-64
2022/11/29 02:08:36;;;;;;;;;;;3.70;99.90;;;;;;5062604;28;20284;-64
2022/11/29 02:11:14;;;;;;;;;;;3.70;99.90;;;;;;5045293;28;20372;-64
2022/11/29 02:13:55;;;;;;;;;;;3.60;99.90;;;;;;5062386;28;19912;-63
2022/11/29 02:16:26;;;;;;;;;;;3.70;99.90;;;;;;5049089;28;19978;-64
2022/11/29 02:19:02;;;;;;;;;;;3.70;99.90;;;;;;5066840;28;19962;-64
2022/11/29 02:21:35;;;;;;;;;;;3.70;99.90;;;;;;5058975;28;20372;-65
2022/11/29 02:24:00;;;;;;;;;;;3.70;99.90;;;;;;5064575;28;19916;-64
2022/11/29 02:26:29;;;;;;;;;;;3.70;99.90;;;;;;5059188;28;19912;-64
2022/11/29 02:29:13;;;;;;;;;;;3.70;99.90;;;;;;5042598;28;20011;-64
2022/11/29 02:31:57;;;;;;;;;;;3.70;99.90;;;;;;5064204;28;19962;-64
2022/11/29 02:34:28;;;;;;;;;;;3.70;99.90;;;;;;5034268;28;19908;-64
2022/11/29 02:37:03;;;;;;;;;;;3.70;99.90;;;;;;5062739;28;19971;-64
2022/11/29 02:39:48;;;;;;;;;;;3.60;99.90;;;;;;5064123;28;19908;-64
2022/11/29 02:42:22;;;;;;;;;;;3.60;99.90;;;;;;5051732;28;20284;-64
2022/11/29 02:45:06;;;;;;;;;;;3.60;99.90;;;;;;5062101;28;19916;-64
2022/11/29 02:47:43;;;;;;;;;;;3.60;99.90;;;;;;5052953;28;19912;-64
2022/11/29 02:50:18;;;;;;;;;;;3.60;99.90;;;;;;5063536;28;19912;-64
2022/11/29 02:52:46;;;;;;;;;;;3.60;99.90;;;;;;5060335;28;19909;-65
2022/11/29 02:55:16;;;;;;;;;;;3.60;99.90;;;;;;5064273;28;19908;-64
2022/11/29 02:57:47;;;;;;;;;;;3.60;99.90;;;;;;5055932;28;19913;-64
2022/11/29 03:00:21;;;;;;;;;;;3.60;99.90;;;;;;5064229;28;20064;-64
2022/11/29 03:02:54;;;;;;;;;;;3.60;99.90;;;;;;5066707;28;20054;-65
2022/11/29 03:05:22;;;;;;;;;;;3.60;99.90;;;;;;5060464;28;19955;-65
2022/11/29 03:07:59;;;;;;;;;;;3.60;99.90;;;;;;5055563;28;19912;-64
2022/11/29 03:10:37;;;;;;;;;;;3.60;99.90;;;;;;5052226;28;19931;-65
2022/11/29 03:13:04;;;;;;;;;;;3.60;99.90;;;;;;5060255;28;20289;-65
2022/11/29 03:15:40;;;;;;;;;;;3.50;99.90;;;;;;5064623;28;19950;-64
2022/11/29 03:18:24;;;;;;;;;;;3.60;99.90;;;;;;5043323;28;19915;-64
2022/11/29 03:21:08;;;;;;;;;;;3.60;99.90;;;;;;5065374;28;20011;-64
2022/11/29 03:23:41;;;;;;;;;;;3.60;99.90;;;;;;5056709;28;20214;-64
2022/11/29 03:26:09;;;;;;;;;;;3.60;99.90;;;;;;5062471;28;19958;-64
2022/11/29 03:28:40;;;;;;;;;;;3.50;99.90;;;;;;5068426;28;19908;-64
2022/11/29 03:31:10;;;;;;;;;;;3.60;99.90;;;;;;5057969;28;19913;-65
2022/11/29 03:33:41;;;;;;;;;;;3.50;99.90;;;;;;5045226;28;19911;-65
2022/11/29 03:36:07;;;;;;;;;;;3.50;99.90;;;;;;5068241;28;20271;-65
2022/11/29 03:38:40;;;;;;;;;;;3.50;99.90;;;;;;5068932;28;19904;-64
2022/11/29 03:41:11;;;;;;;;;;;3.50;99.90;;;;;;5067231;28;19905;-65
2022/11/29 03:43:41;;;;;;;;;;;3.50;99.90;;;;;;5064230;28;20267;-64
2022/11/29 03:46:13;;;;;;;;;;;3.50;99.90;;;;;;5065991;28;19908;-63
2022/11/29 03:48:42;;;;;;;;;;;3.50;99.90;;;;;;5069653;28;19966;-65
2022/11/29 03:51:13;;;;;;;;;;;3.60;99.90;;;;;;5063878;28;19952;-65
2022/11/29 03:53:48;;;;;;;;;;;3.50;99.90;;;;;;5069376;28;19904;-65
2022/11/29 03:56:33;;;;;;;;;;;3.50;99.90;;;;;;5062471;28;19916;-65
2022/11/29 03:58:58;;;;;;;;;;;3.50;99.90;;;;;;5050908;28;19912;-65
2022/11/29 04:01:27;;;;;;;;;;;3.50;99.90;;;;;;5066443;28;20001;-66
2022/11/29 04:03:52;;;;;;;;;;;3.50;99.90;;;;;;5050924;28;19973;-66
2022/11/29 04:06:36;;;;;;;;;;;3.50;99.90;;;;;;5066480;28;20340;-65
2022/11/29 04:09:08;;;;;;;;;;;3.50;99.90;;;;;;5061635;28;19935;-65
2022/11/29 04:11:55;;;;;;;;;;;3.50;99.90;;;;;;5058175;28;19944;-66
2022/11/29 04:14:20;;;;;;;;;;;3.50;99.90;;;;;;5055003;28;19912;-66
2022/11/29 04:17:01;;;;;;;;;;;3.50;99.90;;;;;;5064501;28;19908;-66
2022/11/29 04:19:45;;;;;;;;;;;3.50;99.90;;;;;;5056148;28;19915;-65
2022/11/29 04:22:16;;;;;;;;;;;3.50;99.90;;;;;;5060698;28;19944;-65
2022/11/29 04:24:42;;;;;;;;;;;3.50;99.90;;;;;;5044226;28;19924;-65
2022/11/29 04:27:10;;;;;;;;;;;3.50;99.90;;;;;;5060170;28;19912;-65
2022/11/29 04:29:41;;;;;;;;;;;3.50;99.90;;;;;;5043043;28;19919;-65
2022/11/29 04:32:25;;;;;;;;;;;3.50;99.90;;;;;;5059878;28;19935;-65
2022/11/29 04:34:53;;;;;;;;;;;3.50;99.90;;;;;;5060657;28;19956;-65
2022/11/29 04:37:37;;;;;;;;;;;3.50;99.90;;;;;;5065121;28;19919;-66
2022/11/29 04:40:14;;;;;;;;;;;3.50;99.90;;;;;;5064441;28;20272;-65
2022/11/29 04:42:45;;;;;;;;;;;3.50;99.90;;;;;;5058980;28;19917;-65
2022/11/29 04:45:34;;;;;;;;;;;3.60;99.90;;;;;;5064973;28;19919;-66
2022/11/29 04:48:18;;;;;;;;;;;3.50;99.90;;;;;;5061815;28;20318;-64
2022/11/29 04:50:52;;;;;;;;;;;3.50;99.90;;;;;;5064683;28;19912;-65
2022/11/29 04:53:27;;;;;;;;;;;3.50;99.90;;;;;;5059631;28;20414;-65
2022/11/29 04:55:53;;;;;;;;;;;3.50;99.90;;;;;;5061107;28;19979;-65
2022/11/29 04:58:25;;;;;;;;;;;3.50;99.90;;;;;;5044959;28;20083;-66
2022/11/29 05:00:55;;;;;;;;;;;3.50;99.90;;;;;;5062348;28;20386;-66
2022/11/29 05:03:34;;;;;;;;;;;3.50;99.90;;;;;;5059523;28;19913;-65
2022/11/29 05:06:06;;;;;;;;;;;3.50;99.90;;;;;;5041981;28;19920;-65
2022/11/29 05:08:44;;;;;;;;;;;3.50;99.90;;;;;;5059608;28;19933;-66
2022/11/29 05:11:13;;;;;;;;;;;3.50;99.90;;;;;;5036257;28;19920;-65
2022/11/29 05:13:38;;;;;;;;;;;3.50;99.90;;;;;;5063607;28;19916;-66
2022/11/29 05:16:24;;;;;;;;;;;3.50;99.90;;;;;;5058735;28;19908;-66
2022/11/29 05:18:58;;;;;;;;;;;3.50;99.90;;;;;;5020065;28;19961;-65
2022/11/29 05:21:36;;;;;;;;;;;3.40;99.90;;;;;;5063959;28;19912;-66
2022/11/29 05:24:25;;;;;;;;;;;3.50;99.90;;;;;;5061507;28;19908;-66
2022/11/29 05:26:56;;;;;;;;;;;3.40;99.90;;;;;;5058566;28;20125;-66
2022/11/29 05:29:29;;;;;;;;;;;3.40;99.90;;;;;;5058736;28;20121;-64
2022/11/29 05:32:13;;;;;;;;;;;3.40;99.90;;;;;;5064453;28;19908;-66
2022/11/29 05:34:47;;;;;;;;;;;3.40;99.90;;;;;;5060417;28;19940;-66
2022/11/29 05:37:13;;;;;;;;;;;3.40;99.90;;;;;;5067511;28;19952;-66
2022/11/29 05:39:42;;;;;;;;;;;3.40;99.90;;;;;;5060226;28;19932;-66
2022/11/29 05:42:25;;;;;;;;;;;3.40;99.90;;;;;;5062574;28;19908;-66
2022/11/29 05:44:58;;;;;;;;;;;3.40;99.90;;;;;;5061041;28;19959;-67
2022/11/29 05:47:30;;;;;;;;;;;3.40;99.90;;;;;;5063575;28;19908;-65
2022/11/29 05:49:58;;;;;;;;;;;3.40;99.90;;;;;;5061617;28;19954;-66
2022/11/29 05:52:29;;;;;;;;;;;3.40;99.90;;;;;;5063561;28;19996;-67
2022/11/29 05:55:12;;;;;;;;;;;3.40;99.90;;;;;;5062085;28;19915;-67
2022/11/29 05:58:04;;;;;;;;;;;3.40;99.90;;;;;;5065440;28;19916;-66
2022/11/29 06:00:50;;;;;;;;;;;3.40;99.90;;;;;;5047235;28;19905;-67
2022/11/29 06:03:21;;;;;;;;;;;3.40;99.90;;;;;;5054709;28;19904;-67
2022/11/29 06:05:50;;;;;;;;;;;3.40;99.90;;;;;;5059689;28;20315;-67
2022/11/29 06:08:34;;;;;;;;;;;3.30;99.90;;;;;;5053453;28;20395;-66
2022/11/29 06:11:04;;;;;;;;;;;3.40;99.90;;;;;;5060018;28;19918;-67
2022/11/29 06:13:54;;;;;;;;;;;3.40;99.90;;;;;;5046475;28;20402;-66
2022/11/29 06:16:31;;;;;;;;;;;3.40;99.90;;;;;;5042465;28;19916;-66
2022/11/29 06:19:06;;;;;;;;;;;3.40;99.90;;;;;;5062801;28;19919;-66
2022/11/29 06:21:37;;;;;;;;;;;3.40;99.90;;;;;;5066402;28;19904;-66
2022/11/29 06:24:16;;;;;;;;;;;3.30;99.90;;;;;;5069078;28;19986;-65
2022/11/29 06:27:02;;;;;;;;;;;3.40;99.90;;;;;;5056521;28;20391;-66
2022/11/29 06:29:46;;;;;;;;;;;3.40;99.90;;;;;;5044585;28;20006;-66
2022/11/29 06:32:18;;;;;;;;;;;3.40;99.90;;;;;;5063509;28;19909;-66
2022/11/29 06:34:55;;;;;;;;;;;3.40;99.90;;;;;;5065453;28;19915;-66
2022/11/29 06:37:35;;;;;;;;;;;3.40;99.90;;;;;;5052673;28;20419;-66
2022/11/29 06:40:01;;;;;;;;;;;3.40;99.90;;;;;;5065073;28;19912;-66
2022/11/29 06:42:27;;;;;;;;;;;3.40;99.90;;;;;;5063543;28;19908;-67
2022/11/29 06:44:52;;;;;;;;;;;3.40;99.90;;;;;;5063668;28;20301;-66
2022/11/29 06:47:23;;;;;;;;;;;3.40;99.90;;;;;;5062790;28;19952;-66
2022/11/29 06:49:55;;;;;;;;;;;3.40;99.90;;;;;;5100055;22;19924;-59
2022/11/29 06:52:40;;;;;;;;;;;3.40;99.90;;;;;;5062258;28;20280;-60
2022/11/29 06:55:06;;;;;;;;;;;3.40;99.90;;;;;;5075171;28;19908;-59
2022/11/29 06:57:46;;;;;;;;;;;3.40;99.90;;;;;;5076753;28;20368;-57
2022/11/29 07:00:19;;;;;;;;;;;3.40;99.90;;;;;;5041556;28;19995;-59
2022/11/29 07:03:00;;;;;;;;;;;3.30;99.90;;;;;;5052522;28;20003;-59
2022/11/29 07:05:27;;;;;;;;;;;3.30;99.90;;;;;;5053868;28;19916;-58
2022/11/29 07:07:54;;;;;;;;;;;3.30;99.90;;;;;;5053294;28;20315;-60
2022/11/29 07:10:20;;;;;;;;;;;3.30;99.90;;;;;;5050333;28;19924;-58
2022/11/29 07:12:46;;;;;;;;;;;3.30;99.90;;;;;;5053184;28;19985;-59
2022/11/29 07:15:13;;;;;;;;;;;3.30;99.90;;;;;;5052090;28;19909;-59
2022/11/29 07:17:44;;;;;;;;;;;3.30;99.90;;;;;;5059858;28;19909;-58
2022/11/29 07:20:12;;;;;;;;;;;3.40;99.90;;;;;;5052238;28;19912;-59
2022/11/29 07:22:44;;;;;;;;;;;3.30;99.90;;;;;;5057499;28;19954;-57
2022/11/29 07:25:28;;;;;;;;;;;3.30;99.90;;;;;;5051517;28;20319;-58
2022/11/29 07:27:54;;;;;;;;;;;3.30;99.90;;;;;;5052550;28;20264;-57
2022/11/29 07:30:21;;;;;;;;;;;3.30;99.90;;;;;;5056834;28;19913;-59
2022/11/29 07:33:06;;;;;;;;;;;3.30;99.90;;;;;;5054522;28;20360;-56
2022/11/29 07:35:37;;;;;;;;;;;3.30;99.90;;;;;;5050398;28;19954;-58
2022/11/29 07:38:22;;;;;;;;;;;3.30;99.90;;;;;;5054367;28;19905;-58
2022/11/29 07:41:09;;;;;;;;;;;3.40;99.90;;;;;;5056010;28;19912;-59
2022/11/29 07:43:44;;;;;;;;;;;3.40;99.90;;;;;;5047501;28;19936;-58
2022/11/29 07:46:09;;;;;;;;;;;3.40;99.90;;;;;;5051841;28;20011;-58
2022/11/29 07:48:35;;;;;;;;;;;3.40;99.90;;;;;;5056329;28;20416;-56
2022/11/29 07:51:01;;;;;;;;;;;3.40;99.90;;;;;;5053980;28;20368;-60
2022/11/29 07:53:27;;;;;;;;;;;3.40;99.90;;;;;;5056826;28;19915;-58
2022/11/29 07:55:53;;;;;;;;;;;3.40;99.90;;;;;;5052178;28;20123;-58
2022/11/29 07:58:18;;;;;;;;;;;3.40;99.90;;;;;;5055408;28;19905;-60
2022/11/29 08:00:44;;;;;;;;;;;3.40;99.90;;;;;;5054983;28;19915;-56
2022/11/29 08:03:09;;;;;;;;;;;3.40;99.90;;;;;;5049601;28;19920;-56
2022/11/29 08:05:35;;;;;;;;;;;3.40;99.90;;;;;;5056987;28;19978;-57
2022/11/29 08:08:01;;;;;;;;;;;3.40;99.90;;;;;;5051528;28;20000;-58
2022/11/29 08:10:26;;;;;;;;;;;3.40;99.90;;;;;;5054113;28;20369;-59
2022/11/29 08:12:52;;;;;;;;;;;3.40;99.90;;;;;;5048495;28;20447;-55
2022/11/29 08:15:18;;;;;;;;;;;3.50;99.90;;;;;;5051382;28;19912;-60
2022/11/29 08:17:44;;;;;;;;;;;3.50;99.90;;;;;;5059471;28;19908;-59
2022/11/29 08:20:11;;;;;;;;;;;3.50;99.90;;;;;;5050632;28;20016;-60
2022/11/29 08:22:36;;;;;;;;;;;3.50;99.90;;;;;;5056733;28;19935;-57
2022/11/29 08:25:02;;;;;;;;;;;3.40;99.90;;;;;;5051023;28;19908;-57
2022/11/29 08:27:28;;;;;;;;;;;3.50;99.90;;;;;;5053928;28;19944;-59
2022/11/29 08:29:54;;;;;;;;;;;3.40;99.90;;;;;;5051597;28;20379;-58
2022/11/29 08:32:19;;;;;;;;;;;3.50;99.90;;;;;;5050892;28;19911;-57
2022/11/29 08:34:44;;;;;;;;;;;3.50;99.90;;;;;;5048663;28;20327;-59
2022/11/29 08:37:10;;;;;;;;;;;3.50;99.90;;;;;;5050952;28;19904;-56
2022/11/29 08:39:35;;;;;;;;;;;3.50;99.90;;;;;;5056599;28;19908;-58
2022/11/29 08:42:01;;;;;;;;;;;3.50;99.90;;;;;;5050730;28;19951;-59
2022/11/29 08:44:27;;;;;;;;;;;3.50;99.90;;;;;;5048506;28;19915;-56
2022/11/29 08:50:00;;;;;;;;;;;3.50;99.90;;;;;;5056811;28;20314;-59
2022/11/29 08:55:09;;;;;;;;;;;3.60;99.90;;;;;;5054894;28;20417;-59
2022/11/29 08:57:34;;;;;;;;;;;3.60;99.90;;;;;;5058110;28;19904;-57
2022/11/29 09:00:00;;;;;;;;;;;3.60;99.90;;;;;;5056991;28;19919;-59
2022/11/29 09:02:25;;;;;;;;;;;3.60;99.90;;;;;;5060491;28;19994;-59
2022/11/29 09:04:51;;;;;;;;;;;3.60;99.90;;;;;;5055970;28;20011;-59
2022/11/29 09:07:16;;;;;;;;;;;3.60;99.90;;;;;;5058827;28;20136;-59
2022/11/29 09:09:42;;;;;;;;;;;3.60;99.90;;;;;;5054868;28;19916;-59
2022/11/29 09:12:07;;;;;;;;;;;3.60;99.90;;;;;;5059107;28;19908;-58
2022/11/29 09:14:33;;;;;;;;;;;3.60;99.90;;;;;;5056988;28;20341;-60
2022/11/29 09:16:59;;;;;;;;;;;3.60;99.90;;;;;;5057110;28;20204;-60
2022/11/29 09:19:25;;;;;;;;;;;3.60;99.90;;;;;;5057118;28;19928;-59
2022/11/29 09:21:50;;;;;;;;;;;3.70;99.90;;;;;;5055847;28;19912;-59
2022/11/29 09:24:17;;;;;;;;;;;3.60;99.90;;;;;;5055096;28;19936;-58
2022/11/29 09:26:47;;;;;;;;;;;3.60;99.90;;;;;;5055061;28;20160;-60
2022/11/29 09:29:13;;;;;;;;;;;3.70;99.90;;;;;;5059894;28;19916;-58
2022/11/29 09:31:38;;;;;;;;;;;3.70;99.90;;;;;;5059021;28;19909;-55
2022/11/29 09:34:04;;;;;;;;;;;3.70;99.90;;;;;;5056072;28;19931;-60
2022/11/29 09:36:30;;;;;;;;;;;3.70;99.90;;;;;;5059542;28;19916;-58
2022/11/29 09:38:56;;;;;;;;;;;3.70;99.90;;;;;;5055109;28;19916;-59
2022/11/29 09:41:24;;;;;;;;;;;3.70;99.90;;;;;;5058177;28;19904;-59
2022/11/29 09:44:07;;;;;;;;;;;3.70;99.90;;;;;;5054729;28;20129;-60
2022/11/29 09:46:41;;;;;;;;;;;3.70;99.90;;;;;;5049998;28;19905;-58
2022/11/29 09:49:12;;;;;;;;;;;3.80;99.90;;;;;;5053304;28;20250;-58
2022/11/29 09:51:56;;;;;;;;;;;3.80;99.90;;;;;;5061383;28;20327;-59
2022/11/29 09:54:28;;;;;;;;;;;3.80;99.90;;;;;;5046853;28;19977;-59
2022/11/29 09:56:54;;;;;;;;;;;3.80;99.90;;;;;;5058345;28;20272;-59
2022/11/29 09:59:23;;;;;;;;;;;3.80;99.90;;;;;;5053140;28;19908;-59
2022/11/29 10:01:56;;;;;;;;;;;3.80;99.90;;;;;;5047930;28;20276;-59
2022/11/29 10:04:24;;;;;;;;;;;3.80;99.90;;;;;;5045301;28;19924;-58
2022/11/29 10:06:59;;;;;;;;;;;3.80;99.90;;;;;;5058052;28;19948;-59
2022/11/29 10:09:35;;;;;;;;;;;3.90;99.90;;;;;;5051695;28;19996;-58
2022/11/29 10:12:12;;;;;;;;;;;3.90;99.90;;;;;;5057479;28;19963;-59
2022/11/29 10:14:50;;;;;;;;;;;3.90;99.90;;;;;;5057822;28;19912;-59
2022/11/29 10:17:16;;;;;;;;;;;3.90;99.90;;;;;;5054708;28;19904;-58
2022/11/29 10:19:43;;;;;;;;;;;3.90;99.90;;;;;;5056156;28;20494;-58
2022/11/29 10:22:08;;;;;;;;;;;3.90;99.90;;;;;;5055159;28;19905;-58
2022/11/29 10:24:36;;;;;;;;;;;3.90;99.90;;;;;;5056730;28;20257;-57
2022/11/29 10:27:02;;;;;;;;;;;3.90;99.90;;;;;;5054524;28;19912;-58
2022/11/29 10:29:27;;;;;;;;;;;3.90;99.90;;;;;;5060985;28;20004;-59
2022/11/29 10:31:55;;;;;;;;;;;4.00;99.90;;;;;;5053721;28;19943;-59
2022/11/29 10:34:22;;;;;;;;;;;4.00;99.90;;;;;;5056724;28;19916;-58
2022/11/29 10:36:49;;;;;;;;;;;4.00;99.90;;;;;;5056463;28;19905;-58
2022/11/29 10:39:18;;;;;;;;;;;4.00;99.90;;;;;;5051118;28;19911;-58
2022/11/29 10:41:43;;;;;;;;;;;4.00;99.90;;;;;;5055035;28;19923;-60
2022/11/29 10:44:11;;;;;;;;;;;4.00;99.90;;;;;;5053628;28;20272;-58
2022/11/29 10:46:37;;;;;;;;;;;4.00;99.90;;;;;;5061928;28;20390;-60
2022/11/29 10:49:04;;;;;;;;;;;4.00;99.90;;;;;;5053770;28;20013;-57
2022/11/29 10:51:30;;;;;;;;;;;4.00;99.90;;;;;;5058937;28;19953;-58
2022/11/29 10:54:01;;;;;;;;;;;4.10;99.90;;;;;;5054481;28;19912;-59
2022/11/29 10:56:30;;;;;;;;;;;4.10;99.90;;;;;;5056961;28;19934;-60
2022/11/29 10:59:04;;;;;;;;;;;4.10;99.90;;;;;;5057866;28;20429;-59
2022/11/29 11:01:35;;;;;;;;;;;4.10;99.90;;;;;;5041985;28;19909;-60
2022/11/29 11:04:03;;;;;;;;;;;4.10;99.90;;;;;;5055525;28;20006;-59
2022/11/29 11:06:45;;;;;;;;;;;4.10;99.90;;;;;;5050554;28;20314;-58
2022/11/29 11:09:11;;;;;;;;;;;4.10;99.90;;;;;;5053687;28;19947;-58
2022/11/29 11:11:37;;;;;;;;;;;4.10;99.90;;;;;;5050984;28;20340;-60
2022/11/29 11:14:17;;;;;;;;;;;4.10;99.90;;;;;;5060294;28;19904;-58
2022/11/29 11:16:43;;;;;;;;;;;4.20;99.90;;;;;;5055139;28;19908;-58
2022/11/29 11:19:28;;;;;;;;;;;4.20;99.90;;;;;;5058334;28;19983;-59
2022/11/29 11:21:54;;;;;;;;;;;4.20;99.90;;;;;;5053709;28;19919;-56
2022/11/29 11:24:23;;;;;;;;;;;4.20;99.90;;;;;;5056219;28;19913;-57
2022/11/29 11:26:49;;;;;;;;;;;4.20;99.90;;;;;;5053362;28;19950;-60
2022/11/29 11:29:19;;;;;;;;;;;4.20;99.90;;;;;;5057908;28;19959;-60
2022/11/29 11:31:52;;;;;;;;;;;4.20;99.90;;;;;;5056320;28;19912;-57
2022/11/29 11:34:25;;;;;;;;;;;4.20;99.90;;;;;;5053437;28;19915;-59
2022/11/29 11:36:51;;;;;;;;;;;4.30;99.90;;;;;;5054783;28;20372;-60
2022/11/29 11:39:21;;;;;;;;;;;4.30;99.90;;;;;;5054808;28;19963;-59
2022/11/29 11:44:38;;;;;;;;;;;4.30;99.90;;;;;;5051771;28;20438;-59
2022/11/29 11:47:04;;;;;;;;;;;4.30;99.90;;;;;;5058855;28;19919;-57
2022/11/29 11:49:31;;;;;;;;;;;4.30;99.90;;;;;;5051088;28;20365;-58
2022/11/29 11:51:58;;;;;;;;;;;4.30;99.90;;;;;;5051197;28;20395;-57
2022/11/29 11:54:24;;;;;;;;;;;4.40;99.90;;;;;;5050805;28;19913;-60
2022/11/29 11:56:50;;;;;;;;;;;4.30;99.90;;;;;;5055842;28;19915;-56
2022/11/29 11:59:18;;;;;;;;;;;4.40;99.90;;;;;;5054258;28;20356;-60
2022/11/29 12:01:44;;;;;;;;;;;4.30;99.90;;;;;;5056619;28;20015;-58
2022/11/29 12:04:16;;;;;;;;;;;4.40;99.90;;;;;;5054126;28;20441;-59
2022/11/29 12:06:51;;;;;;;;;;;4.40;99.90;;;;;;5056372;28;19909;-57
2022/11/29 12:09:18;;;;;;;;;;;4.30;99.90;;;;;;5052231;28;19959;-60
2022/11/29 12:11:58;;;;;;;;;;;4.40;99.90;;;;;;5054646;28;20003;-60
2022/11/29 12:14:38;;;;;;;;;;;4.40;99.90;;;;;;5051688;28;19916;-60
2022/11/29 12:17:23;;;;;;;;;;;4.40;99.90;;;;;;5053721;28;20182;-59
2022/11/29 12:19:54;;;;;;;;;;;4.40;99.90;;;;;;5053726;28;20348;-59
2022/11/29 12:22:22;;;;;;;;;;;4.40;99.90;;;;;;5049779;28;20364;-58
2022/11/29 12:24:57;;;;;;;;;;;4.40;99.90;;;;;;5053669;28;20174;-58
2022/11/29 12:27:23;;;;;;;;;;;4.40;99.90;;;;;;5049142;28;19939;-59
2022/11/29 12:29:48;;;;;;;;;;;4.40;99.90;;;;;;5060674;28;19908;-59
2022/11/29 12:32:17;;;;;;;;;;;4.40;99.90;;;;;;5051092;28;19916;-60
2022/11/29 12:34:52;;;;;;;;;;;4.40;99.90;;;;;;5058589;28;19904;-60
2022/11/29 12:37:17;;;;;;;;;;;4.40;99.90;;;;;;5046698;28;19913;-59
2022/11/29 12:40:03;;;;;;;;;;;4.50;99.90;;;;;;5057548;28;19915;-59
2022/11/29 12:42:47;;;;;;;;;;;4.40;99.90;;;;;;5047013;28;19969;-61
2022/11/29 12:45:14;;;;;;;;;;;4.50;99.90;;;;;;5054455;28;19908;-60
2022/11/29 12:48:01;;;;;;;;;;;4.40;99.90;;;;;;5056637;28;19909;-60
2022/11/29 12:50:33;;;;;;;;;;;4.50;99.90;;;;;;5046639;28;19981;-60
2022/11/29 12:53:03;;;;;;;;;;;4.40;99.90;;;;;;5056297;28;19905;-59
2022/11/29 12:55:36;;;;;;;;;;;4.40;99.90;;;;;;5049031;28;20433;-59
2022/11/29 12:58:06;;;;;;;;;;;4.40;99.90;;;;;;5054948;28;19905;-58
2022/11/29 13:00:35;;;;;;;;;;;4.40;99.90;;;;;;5057595;28;19908;-59
2022/11/29 13:03:08;;;;;;;;;;;4.40;99.90;;;;;;5051617;28;20284;-60
2022/11/29 13:05:44;;;;;;;;;;;4.40;99.90;;;;;;5056102;28;20404;-61
2022/11/29 13:08:30;;;;;;;;;;;4.40;99.90;;;;;;5050320;28;19916;-60
2022/11/29 13:11:01;;;;;;;;;;;4.40;99.90;;;;;;5006128;28;20370;-60
2022/11/29 13:13:50;;;;;;;;;;;4.40;99.90;;;;;;5046675;28;19908;-60
2022/11/29 13:16:25;;;;;;;;;;;4.40;99.90;;;;;;5052645;28;19999;-58
2022/11/29 13:18:57;;;;;;;;;;;4.40;99.90;;;;;;5056687;28;19905;-60
2022/11/29 13:21:28;;;;;;;;;;;4.40;99.90;;;;;;5052081;28;19904;-59
2022/11/29 13:24:03;;;;;;;;;;;4.40;99.90;;;;;;5051901;28;19918;-59
2022/11/29 13:26:30;;;;;;;;;;;4.40;99.90;;;;;;5051825;28;19911;-58
2022/11/29 13:28:57;;;;;;;;;;;4.40;99.90;;;;;;5054228;28;19924;-59
2022/11/29 13:31:24;;;;;;;;;;;4.40;99.90;;;;;;5057655;28;20337;-59
2022/11/29 13:33:56;;;;;;;;;;;4.40;99.90;;;;;;5054916;28;20003;-60
2022/11/29 13:36:22;;;;;;;;;;;4.40;99.90;;;;;;5060248;28;19905;-57
2022/11/29 13:39:01;;;;;;;;;;;4.40;99.90;;;;;;5055877;28;20027;-58
2022/11/29 13:41:32;;;;;;;;;;;4.40;99.90;;;;;;5057666;28;20094;-58
2022/11/29 13:44:06;;;;;;;;;;;4.40;99.90;;;;;;5054870;28;20356;-57
2022/11/29 13:46:40;;;;;;;;;;;4.40;99.90;;;;;;5062400;28;19908;-59
2022/11/29 13:49:18;;;;;;;;;;;4.40;99.90;;;;;;5054505;28;19913;-59
2022/11/29 13:51:44;;;;;;;;;;;4.40;99.90;;;;;;5062171;28;20104;-60
2022/11/29 13:54:27;;;;;;;;;;;4.40;99.90;;;;;;5053351;28;19932;-60
2022/11/29 13:57:06;;;;;;;;;;;4.40;99.90;;;;;;5057844;28;19908;-60
2022/11/29 13:59:33;;;;;;;;;;;4.40;99.90;;;;;;5056366;28;19905;-55
2022/11/29 14:01:59;;;;;;;;;;;4.40;99.90;;;;;;5059481;28;19905;-60
2022/11/29 14:04:38;;;;;;;;;;;4.40;99.90;;;;;;5055645;28;19955;-59
2022/11/29 14:07:09;;;;;;;;;;;4.40;99.90;;;;;;5048369;28;19974;-59
2022/11/29 14:09:40;;;;;;;;;;;4.40;99.90;;;;;;5044729;28;20288;-60
2022/11/29 14:12:24;;;;;;;;;;;4.40;99.90;;;;;;5058151;28;20384;-58
2022/11/29 14:14:52;;;;;;;;;;;4.40;99.90;;;;;;5057082;28;19905;-57
2022/11/29 14:17:32;;;;;;;;;;;4.40;99.90;;;;;;5058641;28;20384;-58
2022/11/29 14:20:31;;;;;;;;;;;4.40;99.90;;;;;;5054893;28;19905;-60
2022/11/29 14:23:02;;;;;;;;;;;4.40;99.90;;;;;;5047856;28;19966;-60
2022/11/29 14:25:28;;;;;;;;;;;4.40;99.90;;;;;;5051052;28;19908;-58
2022/11/29 14:27:55;;;;;;;;;;;4.40;99.90;;;;;;5047038;28;20213;-59
2022/11/29 14:30:27;;;;;;;;;;;4.40;99.90;;;;;;5055491;28;19909;-59
2022/11/29 14:33:02;;;;;;;;;;;4.40;99.90;;;;;;5057382;28;20703;-57
2022/11/29 14:35:31;;;;;;;;;;;4.40;99.90;;;;;;5058383;28;19975;-58
2022/11/29 14:38:19;;;;;;;;;;;4.40;99.90;;;;;;5052321;28;20315;-59
2022/11/29 14:40:50;;;;;;;;;;;4.40;99.90;;;;;;5057082;28;20412;-59
2022/11/29 14:43:15;;;;;;;;;;;4.30;99.90;;;;;;5045648;28;19905;-58
2022/11/29 14:45:41;;;;;;;;;;;4.40;99.90;;;;;;5055818;28;19996;-60
2022/11/29 14:48:22;;;;;;;;;;;4.30;99.90;;;;;;5059729;28;19932;-59
2022/11/29 14:50:48;;;;;;;;;;;4.40;99.90;;;;;;5055039;28;19988;-57
2022/11/29 14:53:28;;;;;;;;;;;4.40;99.90;;;;;;5057933;28;19912;-58
2022/11/29 14:56:13;;;;;;;;;;;4.30;99.90;;;;;;5054272;28;20360;-60
2022/11/29 14:58:38;;;;;;;;;;;4.30;99.90;;;;;;5052401;28;19908;-56
2022/11/29 15:01:06;;;;;;;;;;;4.30;99.90;;;;;;5052858;28;20453;-59
2022/11/29 15:03:43;;;;;;;;;;;4.30;99.90;;;;;;5046118;28;20308;-59
2022/11/29 15:06:09;;;;;;;;;;;4.30;99.90;;;;;;5040986;28;19909;-58